Time;durP1;ratioP1;P1;durP2;ratioP2;P2;SDS_P1;SDS_P2;PMS_P1;PMS_P2;Temp;Humidity;BMP_temperature;BMP_pressure;BME280_temperature;BME280_humidity;BME280_pressure;Samples;Min_cycle;Max_cycle;Signal;HPM_P1;HPM_P2
2022/06/15 00:01:22;;;;;;;;;7.50;7.00;25.70;99.90;;;;;;4951505;28;8862;-62
2022/06/15 00:03:55;;;;;;;;;8.75;7.25;25.80;99.90;;;;;;4951644;28;9060;-61
2022/06/15 00:06:30;;;;;;;;;8.00;8.00;25.70;99.90;;;;;;4955455;28;8845;-62
2022/06/15 00:09:00;;;;;;;;;6.25;6.25;25.80;99.90;;;;;;4949697;28;8893;-60
2022/06/15 00:11:34;;;;;;;;;4.75;4.75;25.90;99.90;;;;;;4951315;28;9476;-61
2022/06/15 00:14:10;;;;;;;;;6.75;6.25;25.90;99.90;;;;;;4948211;28;8868;-60
2022/06/15 00:16:40;;;;;;;;;4.00;4.00;25.90;99.90;;;;;;4950677;28;8865;-64
2022/06/15 00:19:12;;;;;;;;;7.75;7.25;26.00;99.90;;;;;;4940962;28;8864;-62
2022/06/15 00:21:43;;;;;;;;;6.00;6.00;26.00;99.90;;;;;;4946308;28;8878;-62
2022/06/15 00:24:13;;;;;;;;;6.75;5.25;26.00;99.90;;;;;;4929729;28;9626;-62
2022/06/15 00:26:44;;;;;;;;;5.25;5.00;26.10;99.90;;;;;;4951230;28;10744;-61
2022/06/15 00:29:15;;;;;;;;;7.00;7.00;26.10;99.90;;;;;;4932515;28;8899;-62
2022/06/15 00:31:45;;;;;;;;;4.00;3.00;26.00;99.90;;;;;;4942868;28;8863;-60
2022/06/15 00:34:17;;;;;;;;;7.00;6.75;26.00;99.90;;;;;;4933896;28;8883;-60
2022/06/15 00:36:47;;;;;;;;;7.75;7.75;26.00;99.90;;;;;;4948865;28;8896;-59
2022/06/15 00:39:18;;;;;;;;;7.00;7.00;26.00;99.90;;;;;;4945655;28;8920;-60
2022/06/15 00:41:49;;;;;;;;;6.75;6.75;26.10;99.90;;;;;;4949984;28;8858;-62
2022/06/15 00:44:25;;;;;;;;;8.75;8.75;26.10;99.90;;;;;;4946116;28;9038;-64
2022/06/15 00:47:02;;;;;;;;;9.00;7.75;26.00;99.90;;;;;;4948507;28;8884;-61
2022/06/15 00:49:40;;;;;;;;;8.50;8.50;26.00;99.90;;;;;;4949341;28;9042;-62
2022/06/15 00:52:19;;;;;;;;;7.25;7.25;26.00;99.90;;;;;;4944200;28;8895;-61
2022/06/15 00:54:51;;;;;;;;;9.25;9.25;26.00;99.90;;;;;;4928552;28;8935;-63
2022/06/15 00:57:22;;;;;;;;;9.25;8.00;26.00;99.90;;;;;;4933263;28;8867;-62
2022/06/15 00:59:53;;;;;;;;;10.00;8.75;26.00;99.90;;;;;;4950505;28;8886;-63
2022/06/15 01:02:27;;;;;;;;;9.25;9.25;25.90;99.90;;;;;;4951110;28;8895;-62
2022/06/15 01:05:07;;;;;;;;;8.25;8.25;25.80;99.90;;;;;;4951315;28;8887;-63
2022/06/15 01:07:53;;;;;;;;;10.50;10.00;25.80;99.90;;;;;;4951817;28;8966;-62
2022/06/15 01:10:49;;;;;;;;;10.25;10.25;25.70;99.90;;;;;;4947876;28;8857;-61
2022/06/15 01:13:39;;;;;;;;;10.25;8.75;25.60;99.90;;;;;;4933570;28;8987;-60
2022/06/15 01:16:31;;;;;;;;;11.50;11.50;25.50;99.90;;;;;;4950951;28;8885;-60
2022/06/15 01:19:24;;;;;;;;;12.50;11.00;25.50;99.90;;;;;;4947741;28;8845;-61
2022/06/15 01:22:15;;;;;;;;;10.75;10.75;25.40;99.90;;;;;;4936086;28;8876;-61
2022/06/15 01:25:04;;;;;;;;;13.00;13.00;25.20;99.90;;;;;;4948736;28;8854;-63
2022/06/15 01:28:05;;;;;;;;;10.25;9.25;25.20;99.90;;;;;;4930440;28;8873;-63
2022/06/15 01:30:58;;;;;;;;;9.25;7.50;25.20;99.90;;;;;;4922398;28;8914;-61
2022/06/15 01:34:05;;;;;;;;;10.25;10.25;25.20;99.90;;;;;;4945674;28;9570;-60
2022/06/15 01:36:57;;;;;;;;;6.50;6.50;25.20;99.90;;;;;;4946947;28;8869;-62
2022/06/15 01:39:43;;;;;;;;;12.25;12.25;25.30;99.90;;;;;;4936836;28;8950;-60
2022/06/15 01:42:32;;;;;;;;;12.50;12.50;25.30;99.90;;;;;;4951002;28;8880;-61
2022/06/15 01:45:11;;;;;;;;;15.00;12.50;25.20;99.90;;;;;;4937164;28;8871;-61
2022/06/15 01:47:49;;;;;;;;;17.75;17.00;25.00;99.90;;;;;;4929423;28;8879;-59
2022/06/15 01:50:28;;;;;;;;;15.75;13.00;25.10;99.90;;;;;;4936517;28;8885;-61
2022/06/15 01:53:16;;;;;;;;;14.25;14.25;25.10;99.90;;;;;;4950646;28;8851;-63
2022/06/15 01:55:52;;;;;;;;;12.50;12.50;25.20;99.90;;;;;;4934402;28;8919;-62
2022/06/15 01:58:27;;;;;;;;;16.00;16.00;25.20;99.90;;;;;;4935025;28;9808;-60
2022/06/15 02:01:21;;;;;;;;;12.50;11.50;25.10;99.90;;;;;;4937071;28;8867;-61
2022/06/15 02:04:10;;;;;;;;;16.75;16.75;25.20;99.90;;;;;;4934088;28;8923;-62
2022/06/15 02:07:30;;;;;;;;;17.50;17.00;25.10;99.90;;;;;;4933807;28;8991;-61
2022/06/15 02:10:30;;;;;;;;;12.50;12.00;25.10;99.90;;;;;;4935042;28;8891;-59
2022/06/15 02:13:42;;;;;;;;;15.75;15.75;25.10;99.90;;;;;;4919596;28;9898;-62
2022/06/15 02:16:52;;;;;;;;;13.75;13.75;25.10;99.90;;;;;;4898654;28;8999;-61
2022/06/15 02:19:32;;;;;;;;;13.50;13.50;25.10;99.90;;;;;;4924020;28;8893;-61
2022/06/15 02:22:13;;;;;;;;;14.25;12.75;25.00;99.90;;;;;;4936448;28;8857;-62
2022/06/15 02:24:47;;;;;;;;;13.75;13.00;24.90;99.90;;;;;;4944957;28;8869;-62
2022/06/15 02:27:20;;;;;;;;;12.75;12.75;24.90;99.90;;;;;;4925159;28;9661;-63
2022/06/15 02:29:59;;;;;;;;;14.00;13.00;24.80;99.90;;;;;;4935726;28;8869;-59
2022/06/15 02:32:29;;;;;;;;;17.25;14.50;24.70;99.90;;;;;;4951950;28;8871;-63
2022/06/15 02:35:00;;;;;;;;;15.00;13.25;24.60;99.90;;;;;;4951606;28;8842;-63
2022/06/15 02:37:31;;;;;;;;;16.25;13.75;24.60;99.90;;;;;;4942392;28;8848;-61
2022/06/15 02:40:03;;;;;;;;;15.50;13.75;24.50;99.90;;;;;;4933040;28;8904;-61
2022/06/15 02:42:40;;;;;;;;;13.00;13.00;24.40;99.90;;;;;;4940756;28;8861;-61
2022/06/15 02:45:23;;;;;;;;;14.75;14.00;24.30;99.90;;;;;;4928005;28;8872;-62
2022/06/15 02:47:58;;;;;;;;;13.25;13.25;24.30;99.90;;;;;;4935457;28;8869;-62
2022/06/15 02:50:34;;;;;;;;;12.25;12.25;24.30;99.90;;;;;;4942678;28;8883;-62
2022/06/15 02:53:11;;;;;;;;;13.75;13.75;24.30;99.90;;;;;;4940187;28;8849;-61
2022/06/15 02:55:42;;;;;;;;;13.25;13.25;24.20;99.90;;;;;;4957303;28;8911;-60
2022/06/15 02:58:57;;;;;;;;;13.00;12.50;24.20;99.90;;;;;;4956525;28;8923;-61
2022/06/15 03:01:30;;;;;;;;;11.75;9.00;24.00;99.90;;;;;;4955158;28;9004;-61
2022/06/15 03:04:00;;;;;;;;;14.33;14.33;24.00;99.90;;;;;;4935397;28;8849;-63
2022/06/15 03:06:32;;;;;;;;;13.67;13.67;23.80;99.90;;;;;;4937232;28;8944;-62
2022/06/15 03:09:13;;;;;;;;;12.67;12.33;23.80;99.90;;;;;;4941884;28;9102;-61
2022/06/15 03:11:46;;;;;;;;;11.67;11.67;23.80;99.90;;;;;;4941241;28;9018;-61
2022/06/15 03:14:23;;;;;;;;;18.33;17.33;23.80;99.90;;;;;;4941116;28;9025;-63
2022/06/15 03:16:55;;;;;;;;;20.33;19.67;23.70;99.90;;;;;;4939192;28;9200;-63
2022/06/15 03:19:33;;;;;;;;;14.33;14.33;23.60;99.90;;;;;;4932721;28;9231;-63
2022/06/15 03:22:05;;;;;;;;;16.00;15.67;23.60;99.90;;;;;;4935092;28;9024;-64
2022/06/15 03:24:38;;;;;;;;;15.67;15.67;23.50;99.90;;;;;;4942705;28;9952;-59
2022/06/15 03:27:12;;;;;;;;;15.00;15.00;23.30;99.90;;;;;;4934992;28;9666;-54
2022/06/15 03:29:47;;;;;;;;;15.33;15.33;23.20;99.90;;;;;;4936477;28;9202;-52
2022/06/15 03:32:17;;;;;;;;;15.67;13.67;23.20;99.90;;;;;;4937352;28;9210;-51
2022/06/15 03:35:01;;;;;;;;;17.33;15.33;23.10;99.90;;;;;;4932229;28;10089;-48
2022/06/15 03:37:33;;;;;;;;;15.67;14.00;23.10;99.90;;;;;;4949733;28;9429;-52
2022/06/15 03:40:23;;;;;;;;;13.67;12.67;23.10;99.90;;;;;;4937478;28;9227;-52
2022/06/15 03:42:55;;;;;;;;;17.00;17.00;23.00;99.90;;;;;;4955010;28;9271;-51
2022/06/15 03:45:28;;;;;;;;;16.67;15.33;22.90;99.90;;;;;;4937625;28;9351;-47
2022/06/15 03:47:58;;;;;;;;;17.67;16.33;22.90;99.90;;;;;;4932738;28;9418;-49
2022/06/15 03:50:34;;;;;;;;;16.33;16.33;22.80;99.90;;;;;;4961401;28;9414;-49
2022/06/15 03:53:07;;;;;;;;;17.00;15.67;22.70;99.90;;;;;;4937595;28;9342;-46
2022/06/15 03:55:43;;;;;;;;;13.67;12.33;22.70;99.90;;;;;;4945281;28;9481;-51
2022/06/15 03:58:19;;;;;;;;;17.00;17.00;22.60;99.90;;;;;;4930658;28;9410;-49
2022/06/15 04:00:54;;;;;;;;;17.67;16.00;22.60;99.90;;;;;;4944674;28;9644;-49
2022/06/15 04:03:27;;;;;;;;;16.00;16.00;22.50;99.90;;;;;;4935510;28;9581;-54
2022/06/15 04:06:19;;;;;;;;;19.33;18.00;22.40;99.90;;;;;;4960407;28;10179;-52
2022/06/15 04:08:52;;;;;;;;;18.67;17.00;22.40;99.90;;;;;;4937814;28;9297;-54
2022/06/15 04:14:23;;;;;;;;;17.33;14.33;22.40;99.90;;;;;;4939762;28;9624;-53
2022/06/15 04:17:02;;;;;;;;;14.33;14.33;22.30;99.90;;;;;;4935573;28;9653;-53
2022/06/15 04:20:31;;;;;;;;;14.67;14.67;22.20;99.90;;;;;;4938241;28;9613;-54
2022/06/15 04:22:40;;;;;;;;;14.25;14.25;22.20;99.90;;;;;;4920425;28;9655;-52
2022/06/15 04:25:11;;;;;;;;;18.50;18.50;22.20;99.90;;;;;;4918102;28;9637;-52
2022/06/15 04:27:42;;;;;;;;;18.00;18.00;22.10;99.90;;;;;;4916555;28;9753;-52
2022/06/15 04:30:15;;;;;;;;;17.00;17.00;22.10;99.90;;;;;;4916729;28;9827;-55
2022/06/15 04:32:53;;;;;;;;;16.75;16.75;22.10;99.90;;;;;;4915923;28;9669;-52
2022/06/15 04:35:31;;;;;;;;;17.33;16.00;22.00;99.90;;;;;;4915819;28;9783;-49
2022/06/15 04:38:04;;;;;;;;;17.50;17.50;21.90;99.90;;;;;;4924054;28;9669;-51
2022/06/15 04:40:43;;;;;;;;;16.00;16.00;21.90;99.90;;;;;;4920922;28;9834;-48
2022/06/15 04:43:14;;;;;;;;;0.00;0.00;21.90;99.90;;;;;;4920069;28;9614;-51
2022/06/15 04:45:45;;;;;;;;;16.00;15.33;21.80;99.90;;;;;;4918829;28;9602;-49
2022/06/15 04:48:21;;;;;;;;;12.25;12.25;21.70;99.90;;;;;;4915497;28;9584;-51
2022/06/15 04:50:55;;;;;;;;;16.25;16.25;21.70;99.90;;;;;;4923605;28;9739;-51
2022/06/15 04:53:31;;;;;;;;;9.75;9.00;21.60;99.90;;;;;;4919831;28;9851;-53
2022/06/15 04:56:02;;;;;;;;;13.50;12.25;21.60;99.90;;;;;;4923139;28;10061;-48
2022/06/15 04:58:32;;;;;;;;;18.00;17.50;21.50;99.90;;;;;;4919717;28;10072;-52
2022/06/15 05:01:04;;;;;;;;;23.25;21.50;21.50;99.90;;;;;;4919808;28;9985;-51
2022/06/15 05:03:37;;;;;;;;;22.50;20.25;21.50;99.90;;;;;;4932286;28;10046;-54
2022/06/15 05:06:36;;;;;;;;;19.25;18.00;21.40;99.90;;;;;;4922788;28;10732;-55
2022/06/15 05:09:12;;;;;;;;;17.00;17.00;21.40;99.90;;;;;;4937886;28;10877;-49
2022/06/15 05:11:45;;;;;;;;;16.00;16.00;21.30;99.90;;;;;;4932750;28;9980;-52
2022/06/15 05:14:15;;;;;;;;;15.00;15.00;21.30;99.90;;;;;;4921819;28;10718;-52
2022/06/15 05:16:48;;;;;;;;;17.00;16.00;21.20;99.90;;;;;;4920673;28;9746;-48
2022/06/15 05:19:25;;;;;;;;;17.25;17.25;21.30;99.90;;;;;;4921940;28;9914;-48
2022/06/15 05:21:57;;;;;;;;;17.75;17.75;21.20;99.90;;;;;;4927300;28;10221;-49
2022/06/15 05:24:31;;;;;;;;;18.00;16.75;21.20;99.90;;;;;;4919065;28;9805;-50
2022/06/15 05:27:04;;;;;;;;;14.75;14.75;21.10;99.90;;;;;;4920232;28;10133;-54
2022/06/15 05:29:37;;;;;;;;;17.00;16.25;21.10;99.90;;;;;;4939053;28;9870;-52
2022/06/15 05:32:15;;;;;;;;;16.00;16.00;21.10;99.90;;;;;;4921616;28;9819;-52
2022/06/15 05:34:46;;;;;;;;;18.00;17.25;21.10;99.90;;;;;;4920499;28;9918;-52
2022/06/15 05:37:19;;;;;;;;;18.00;17.00;21.00;99.90;;;;;;4920820;28;10015;-50
2022/06/15 05:39:51;;;;;;;;;16.25;15.25;21.00;99.90;;;;;;4912076;28;10075;-50
2022/06/15 05:42:22;;;;;;;;;16.50;16.50;20.90;99.90;;;;;;4936073;28;10067;-53
2022/06/15 05:45:01;;;;;;;;;17.75;17.25;20.90;99.90;;;;;;4921271;28;9897;-52
2022/06/15 05:47:32;;;;;;;;;14.75;14.75;20.90;99.90;;;;;;4939575;28;10105;-51
2022/06/15 05:50:02;;;;;;;;;13.00;13.00;20.90;99.90;;;;;;4935783;28;9740;-51
2022/06/15 05:52:46;;;;;;;;;14.25;14.25;20.80;99.90;;;;;;4921797;28;10114;-52
2022/06/15 05:55:18;;;;;;;;;15.00;14.50;20.80;99.90;;;;;;4919430;28;10010;-50
2022/06/15 05:57:48;;;;;;;;;14.50;14.50;20.70;99.90;;;;;;4941065;28;10284;-49
2022/06/15 06:00:19;;;;;;;;;18.50;17.50;20.80;99.90;;;;;;4935027;28;9976;-53
2022/06/15 06:02:48;;;;;;;;;19.25;19.00;20.70;99.90;;;;;;4935929;28;9746;-52
2022/06/15 06:05:23;;;;;;;;;19.25;19.00;20.70;99.90;;;;;;4933218;28;10063;-52
2022/06/15 06:07:54;;;;;;;;;16.75;16.75;20.60;99.90;;;;;;4937283;28;9746;-51
2022/06/15 06:10:25;;;;;;;;;19.75;17.50;20.50;99.90;;;;;;4936969;28;10126;-48
2022/06/15 06:12:55;;;;;;;;;18.50;17.00;20.60;99.90;;;;;;4943237;28;10103;-50
2022/06/15 06:15:26;;;;;;;;;16.50;15.75;20.50;99.90;;;;;;4933608;28;10003;-48
2022/06/15 06:17:56;;;;;;;;;15.25;15.25;20.40;99.90;;;;;;4938944;28;9899;-50
2022/06/15 06:20:28;;;;;;;;;18.50;16.50;20.40;99.90;;;;;;4933345;28;9894;-50
2022/06/15 06:23:01;;;;;;;;;16.50;16.50;20.40;99.90;;;;;;4935545;28;10029;-52
2022/06/15 06:25:32;;;;;;;;;14.00;14.00;20.40;99.90;;;;;;4930077;28;10159;-51
2022/06/15 06:28:02;;;;;;;;;13.75;13.75;20.30;99.90;;;;;;4931099;28;10142;-50
2022/06/15 06:30:32;;;;;;;;;16.50;16.50;20.30;99.90;;;;;;4933294;28;10162;-50
2022/06/15 06:33:02;;;;;;;;;15.25;15.25;20.30;99.90;;;;;;4934420;28;10279;-50
2022/06/15 06:35:32;;;;;;;;;19.00;18.25;20.30;99.90;;;;;;4934209;28;10100;-49
2022/06/15 06:38:02;;;;;;;;;19.25;16.75;20.30;99.90;;;;;;4933130;28;10245;-51
2022/06/15 06:40:33;;;;;;;;;16.75;16.75;20.20;99.90;;;;;;4933485;28;10142;-50
2022/06/15 06:43:05;;;;;;;;;14.50;14.50;20.10;99.90;;;;;;4929689;28;10294;-50
2022/06/15 06:45:35;;;;;;;;;15.25;15.25;20.10;99.90;;;;;;4932315;28;10361;-50
2022/06/15 06:48:06;;;;;;;;;13.50;13.50;20.10;99.90;;;;;;4933793;28;10103;-53
2022/06/15 06:50:39;;;;;;;;;15.75;15.75;20.10;99.90;;;;;;4936039;28;10915;-51
2022/06/15 06:53:11;;;;;;;;;14.50;14.50;20.10;99.90;;;;;;4935946;28;10248;-51
2022/06/15 06:55:41;;;;;;;;;18.75;16.50;20.10;99.90;;;;;;4934387;28;10164;-52
2022/06/15 06:58:11;;;;;;;;;12.75;12.75;20.00;99.90;;;;;;4940822;28;10321;-51
2022/06/15 07:00:42;;;;;;;;;16.50;16.50;20.00;99.90;;;;;;4928063;28;10373;-48
2022/06/15 07:03:12;;;;;;;;;15.75;15.00;20.00;99.90;;;;;;4931855;28;11930;-53
2022/06/15 07:05:44;;;;;;;;;12.25;12.25;20.00;99.90;;;;;;4932383;28;10701;-50
2022/06/15 07:08:17;;;;;;;;;17.75;16.00;19.90;99.90;;;;;;4932149;28;10242;-52
2022/06/15 07:10:47;;;;;;;;;13.50;13.50;19.90;99.90;;;;;;4934268;28;10354;-52
2022/06/15 07:13:17;;;;;;;;;20.00;15.50;19.90;99.90;;;;;;4935007;28;10367;-51
2022/06/15 07:15:48;;;;;;;;;15.25;15.25;19.80;99.90;;;;;;4931250;28;11219;-52
2022/06/15 07:18:19;;;;;;;;;16.25;15.75;19.80;99.90;;;;;;4945735;28;11017;-49
2022/06/15 07:20:50;;;;;;;;;16.25;14.75;19.80;99.90;;;;;;4956623;28;10125;-51
2022/06/15 07:23:20;;;;;;;;;16.00;16.00;19.80;99.90;;;;;;4942009;28;10223;-51
2022/06/15 07:25:50;;;;;;;;;16.25;16.25;19.70;99.90;;;;;;4955090;28;10196;-50
2022/06/15 07:28:20;;;;;;;;;15.75;15.75;19.70;99.90;;;;;;4959167;28;10890;-51
2022/06/15 07:30:50;;;;;;;;;20.75;17.50;19.70;99.90;;;;;;4957397;28;10249;-48
2022/06/15 07:33:20;;;;;;;;;20.50;18.25;19.70;99.90;;;;;;4955361;28;10407;-50
2022/06/15 07:35:51;;;;;;;;;12.25;12.25;19.60;99.90;;;;;;4956944;28;10427;-49
2022/06/15 07:38:21;;;;;;;;;16.00;14.75;19.60;99.90;;;;;;4957818;28;10368;-50
2022/06/15 07:40:59;;;;;;;;;15.50;14.25;19.60;99.90;;;;;;4962217;28;10428;-49
2022/06/15 07:43:29;;;;;;;;;17.75;16.75;19.60;99.90;;;;;;4954157;28;10396;-51
2022/06/15 07:45:59;;;;;;;;;20.00;18.25;19.60;99.90;;;;;;4953353;28;10302;-50
2022/06/15 07:51:29;;;;;;;;;19.50;19.50;19.40;99.90;;;;;;4958273;28;10300;-49
2022/06/15 07:54:00;;;;;;;;;17.50;17.00;19.40;99.90;;;;;;4962560;28;10555;-52
2022/06/15 07:56:31;;;;;;;;;15.25;15.25;19.40;99.90;;;;;;4956462;28;10366;-48
2022/06/15 07:59:01;;;;;;;;;16.75;16.25;19.50;99.90;;;;;;4956942;28;10470;-52
2022/06/15 08:01:31;;;;;;;;;17.25;17.25;19.40;99.90;;;;;;4959220;28;10284;-48
2022/06/15 08:04:03;;;;;;;;;18.75;18.75;19.40;99.90;;;;;;4935899;28;10338;-51
2022/06/15 08:06:38;;;;;;;;;17.00;17.00;19.30;99.90;;;;;;4954966;28;10463;-53
2022/06/15 08:09:09;;;;;;;;;14.00;12.75;19.30;99.90;;;;;;4960447;28;10582;-50
2022/06/15 08:12:11;;;;;;;;;20.75;20.75;19.30;99.90;;;;;;4955699;28;10221;-51
2022/06/15 08:14:33;;;;;;;;;18.50;17.75;19.20;99.90;;;;;;4959123;28;10459;-50
2022/06/15 08:17:07;;;;;;;;;16.50;16.50;19.20;99.90;;;;;;4934691;28;10926;-52
2022/06/15 08:19:43;;;;;;;;;17.00;17.00;19.10;99.90;;;;;;4960859;28;10670;-52
2022/06/15 08:22:15;;;;;;;;;13.25;13.25;19.10;99.90;;;;;;4955325;28;10429;-52
2022/06/15 08:24:46;;;;;;;;;16.25;15.75;19.10;99.90;;;;;;4956292;28;10558;-49
2022/06/15 08:27:20;;;;;;;;;17.50;15.25;19.20;99.90;;;;;;4951541;28;11365;-53
2022/06/15 08:29:51;;;;;;;;;15.75;15.75;19.10;99.90;;;;;;4951966;28;10454;-51
2022/06/15 08:32:22;;;;;;;;;17.50;17.50;19.10;99.90;;;;;;4954509;28;10550;-51
2022/06/15 08:34:53;;;;;;;;;17.25;14.50;19.10;99.90;;;;;;4960955;28;10578;-51
2022/06/15 08:37:24;;;;;;;;;21.50;21.50;19.00;99.90;;;;;;4955973;28;10645;-49
2022/06/15 08:39:54;;;;;;;;;17.50;17.50;18.90;99.90;;;;;;4960195;28;10748;-51
2022/06/15 08:42:45;;;;;;;;;14.50;14.50;18.90;99.90;;;;;;4957715;28;10591;-47
2022/06/15 08:45:36;;;;;;;;;15.50;15.50;18.80;99.90;;;;;;4937757;28;10513;-49
2022/06/15 08:48:43;;;;;;;;;18.50;18.00;18.80;99.90;;;;;;4957272;28;10686;-51
2022/06/15 08:51:42;;;;;;;;;19.25;19.25;18.80;99.90;;;;;;4956797;28;10601;-49
2022/06/15 08:54:26;;;;;;;;;17.50;17.50;18.80;99.90;;;;;;4955078;28;10437;-50
2022/06/15 08:57:08;;;;;;;;;16.75;16.00;18.80;99.90;;;;;;4961599;28;10699;-50
2022/06/15 08:59:55;;;;;;;;;15.75;15.75;18.80;99.90;;;;;;4956429;28;10497;-48
2022/06/15 09:02:36;;;;;;;;;20.50;19.00;18.80;99.90;;;;;;4951820;28;10802;-51
2022/06/15 09:05:09;;;;;;;;;16.75;16.75;18.70;99.90;;;;;;4955492;28;10863;-52
2022/06/15 09:08:09;;;;;;;;;19.75;19.00;18.70;99.90;;;;;;4953754;28;10597;-52
2022/06/15 09:10:46;;;;;;;;;18.00;16.75;18.60;99.90;;;;;;4955063;28;10849;-50
2022/06/15 09:13:37;;;;;;;;;19.50;17.75;18.70;99.90;;;;;;4956402;28;10709;-52
2022/06/15 09:16:29;;;;;;;;;16.00;15.00;18.70;99.90;;;;;;4951639;28;11189;-51
2022/06/15 09:19:14;;;;;;;;;18.00;18.00;18.60;99.90;;;;;;4955565;28;10675;-50
2022/06/15 09:21:54;;;;;;;;;16.50;15.25;18.60;99.90;;;;;;4957077;28;11006;-51
2022/06/15 09:24:36;;;;;;;;;17.75;17.25;18.60;99.90;;;;;;4960997;28;10837;-51
2022/06/15 09:27:13;;;;;;;;;17.00;15.25;18.60;99.90;;;;;;4953926;28;10933;-52
2022/06/15 09:29:57;;;;;;;;;15.75;15.75;18.60;99.90;;;;;;4953510;28;10991;-49
2022/06/15 09:32:38;;;;;;;;;18.25;17.00;18.50;99.90;;;;;;4954992;28;12469;-52
2022/06/15 09:36:07;;;;;;;;;16.50;14.25;18.50;99.90;;;;;;4936101;28;10955;-48
2022/06/15 09:38:38;;;;;;;;;16.75;15.75;18.40;99.90;;;;;;4876808;29;11188;-51
2022/06/15 09:41:33;;;;;;;;;21.00;19.00;18.40;99.90;;;;;;4879595;29;10940;-52
2022/06/15 09:44:03;;;;;;;;;20.25;20.25;18.50;99.90;;;;;;4931360;28;10967;-52
2022/06/15 09:47:20;;;;;;;;;17.25;17.00;18.50;99.90;;;;;;4949136;28;11118;-50
2022/06/15 09:50:03;;;;;;;;;16.25;14.75;18.40;99.90;;;;;;4956264;28;10906;-50
2022/06/15 09:53:04;;;;;;;;;19.75;18.25;18.40;99.90;;;;;;4946379;28;10692;-51
2022/06/15 09:55:42;;;;;;;;;17.00;16.50;18.40;99.90;;;;;;4957068;28;10883;-50
2022/06/15 09:58:47;;;;;;;;;16.50;16.50;18.40;99.90;;;;;;4951226;28;10743;-52
2022/06/15 10:01:18;;;;;;;;;20.75;18.00;18.30;99.90;;;;;;4953109;28;11042;-52
2022/06/15 10:03:53;;;;;;;;;28.25;24.50;18.30;99.90;;;;;;4954666;28;10918;-51
2022/06/15 10:06:51;;;;;;;;;32.00;30.25;18.30;99.90;;;;;;4960256;28;11659;-49
2022/06/15 10:09:27;;;;;;;;;20.00;20.00;18.30;99.90;;;;;;4948412;28;11342;-50
2022/06/15 10:15:15;;;;;;;;;18.75;18.75;18.20;99.90;;;;;;4923503;28;10838;-53
2022/06/15 10:17:53;;;;;;;;;15.75;15.75;18.10;99.90;;;;;;4942851;28;11131;-51
2022/06/15 10:20:35;;;;;;;;;20.50;19.25;18.10;99.90;;;;;;4937013;28;10758;-51
2022/06/15 10:23:26;;;;;;;;;15.50;14.00;18.00;99.90;;;;;;4934969;28;10794;-51
2022/06/15 10:25:57;;;;;;;;;15.00;15.00;18.10;99.90;;;;;;4930935;28;10925;-52
2022/06/15 10:28:39;;;;;;;;;15.25;15.00;18.10;99.90;;;;;;4936983;28;10867;-50
2022/06/15 10:31:17;;;;;;;;;21.75;20.25;18.10;99.90;;;;;;4928224;28;11714;-52
2022/06/15 10:33:50;;;;;;;;;15.75;14.25;18.10;99.90;;;;;;4932049;28;10883;-54
2022/06/15 10:36:34;;;;;;;;;16.25;16.25;18.00;99.90;;;;;;4937762;28;10943;-52
2022/06/15 10:39:24;;;;;;;;;14.00;12.50;18.00;99.90;;;;;;4931112;28;10902;-51
2022/06/15 10:42:05;;;;;;;;;11.50;11.50;18.00;99.90;;;;;;4935400;28;11054;-52
2022/06/15 10:44:40;;;;;;;;;11.50;11.50;17.90;99.90;;;;;;4932321;28;11006;-52
2022/06/15 10:47:19;;;;;;;;;13.00;13.00;17.90;99.90;;;;;;4931414;28;11149;-51
2022/06/15 10:49:55;;;;;;;;;11.50;11.50;17.90;99.90;;;;;;4928290;28;11615;-51
2022/06/15 10:52:35;;;;;;;;;15.50;13.50;17.90;99.90;;;;;;4936845;28;11221;-51
2022/06/15 11:04:24;;;;;;;;;22.25;19.75;17.80;99.90;;;;;;4935059;28;11685;-53
2022/06/15 11:07:13;;;;;;;;;21.00;21.00;17.80;99.90;;;;;;4943756;28;11532;-54
2022/06/15 11:09:56;;;;;;;;;24.50;22.50;17.80;99.90;;;;;;4941384;28;11552;-52
2022/06/15 11:12:33;;;;;;;;;23.50;23.50;17.80;99.90;;;;;;4936534;28;11598;-52
2022/06/15 11:15:14;;;;;;;;;28.00;24.75;17.70;99.90;;;;;;4937737;28;11527;-49
2022/06/15 11:18:02;;;;;;;;;29.25;27.00;17.70;99.90;;;;;;4938441;28;12291;-52
2022/06/15 11:21:06;;;;;;;;;28.75;27.75;17.70;99.90;;;;;;4930062;28;12343;-51
2022/06/15 11:24:00;;;;;;;;;36.25;33.00;17.70;99.90;;;;;;4945177;28;11554;-50
2022/06/15 11:27:08;;;;;;;;;37.25;34.25;17.60;99.90;;;;;;4944420;28;11613;-51
2022/06/15 11:29:48;;;;;;;;;41.50;35.50;17.60;99.90;;;;;;4928839;28;11726;-48
2022/06/15 11:32:28;;;;;;;;;43.75;37.75;17.60;99.90;;;;;;4922546;28;11620;-49
2022/06/15 11:35:14;;;;;;;;;41.25;36.50;17.50;99.90;;;;;;4936040;28;11643;-52
2022/06/15 11:37:48;;;;;;;;;40.00;35.50;17.50;99.90;;;;;;4935942;28;11604;-50
2022/06/15 11:40:49;;;;;;;;;41.25;36.75;17.50;99.90;;;;;;4948351;28;11600;-52
2022/06/15 11:43:29;;;;;;;;;37.25;34.25;17.50;99.90;;;;;;4929259;28;11670;-51
2022/06/15 11:46:19;;;;;;;;;34.00;30.25;17.40;99.90;;;;;;4937217;28;11577;-52
2022/06/15 11:49:06;;;;;;;;;32.00;30.50;17.50;99.90;;;;;;4934094;28;12278;-50
2022/06/15 11:51:54;;;;;;;;;24.75;23.00;17.40;99.90;;;;;;4936048;28;11574;-52
2022/06/15 11:55:07;;;;;;;;;23.00;23.00;17.40;99.90;;;;;;4937554;28;11576;-49
2022/06/15 11:57:56;;;;;;;;;14.00;14.00;17.40;99.90;;;;;;4936942;28;11728;-52
2022/06/15 12:00:34;;;;;;;;;16.75;16.75;17.30;99.90;;;;;;4930869;28;12482;-51
2022/06/15 12:03:41;;;;;;;;;19.75;18.50;17.30;99.90;;;;;;4940314;28;11220;-52
2022/06/15 12:06:26;;;;;;;;;17.50;17.50;17.30;99.90;;;;;;4939261;28;11696;-49
2022/06/15 12:09:18;;;;;;;;;14.00;14.00;17.30;99.90;;;;;;4932751;28;11071;-51
2022/06/15 12:15:05;;;;;;;;;18.25;17.25;17.20;99.90;;;;;;4935415;28;11279;-51
2022/06/15 12:18:20;;;;;;;;;16.50;16.50;17.20;99.90;;;;;;4935302;28;11204;-49
2022/06/15 12:21:16;;;;;;;;;18.25;18.25;17.10;99.90;;;;;;4911108;28;11337;-52
2022/06/15 12:24:18;;;;;;;;;19.75;16.75;17.10;99.90;;;;;;4933798;28;11022;-51
2022/06/15 12:27:07;;;;;;;;;18.00;16.75;17.00;99.90;;;;;;4932427;28;11574;-49
2022/06/15 12:29:52;;;;;;;;;18.00;17.75;17.10;99.90;;;;;;4931809;28;11318;-52
2022/06/15 12:32:57;;;;;;;;;22.25;20.75;17.00;99.90;;;;;;4930337;28;11336;-51
2022/06/15 12:36:05;;;;;;;;;22.00;21.50;17.00;99.90;;;;;;4929678;28;11526;-50
2022/06/15 12:39:14;;;;;;;;;24.00;22.00;17.00;99.90;;;;;;4935211;28;11534;-50
2022/06/15 12:44:58;;;;;;;;;19.00;19.00;17.00;99.90;;;;;;4934249;28;11378;-52
2022/06/15 12:47:29;;;;;;;;;14.00;14.00;16.90;99.90;;;;;;4937575;28;11541;-52
2022/06/15 12:50:19;;;;;;;;;17.50;17.50;16.90;99.90;;;;;;4937626;28;12573;-53
2022/06/15 12:52:53;;;;;;;;;17.75;17.75;16.90;99.90;;;;;;4932897;28;11645;-51
2022/06/15 12:55:48;;;;;;;;;7.25;7.25;16.90;99.90;;;;;;4934455;28;11509;-55
2022/06/15 12:58:48;;;;;;;;;20.50;18.75;16.90;99.90;;;;;;4932959;28;11492;-50
2022/06/15 13:01:25;;;;;;;;;18.25;17.50;16.90;99.90;;;;;;4938264;28;11282;-51
2022/06/15 13:04:12;;;;;;;;;18.25;18.25;16.90;99.90;;;;;;4926896;28;11571;-55
2022/06/15 13:06:44;;;;;;;;;19.25;19.25;16.90;99.90;;;;;;4938137;28;11683;-50
2022/06/15 13:09:16;;;;;;;;;23.00;20.50;16.80;99.90;;;;;;4937491;28;11524;-52
2022/06/15 13:11:59;;;;;;;;;23.00;20.25;16.80;99.90;;;;;;4935124;28;11725;-51
2022/06/15 13:14:38;;;;;;;;;19.00;19.00;16.80;99.90;;;;;;4938752;28;11520;-49
2022/06/15 13:17:13;;;;;;;;;20.75;19.50;16.80;99.90;;;;;;4932189;28;11540;-51
2022/06/15 13:20:00;;;;;;;;;20.50;19.25;16.80;99.90;;;;;;4934566;28;11584;-51
2022/06/15 13:22:38;;;;;;;;;17.25;17.25;16.80;99.90;;;;;;4935819;28;11501;-51
2022/06/15 13:25:21;;;;;;;;;20.25;20.25;16.80;99.90;;;;;;4936837;28;11549;-50
2022/06/15 13:28:02;;;;;;;;;18.50;17.25;16.80;99.90;;;;;;4939366;28;11570;-48
2022/06/15 13:30:54;;;;;;;;;20.75;20.75;16.80;99.90;;;;;;4935094;28;11532;-52
2022/06/15 13:33:46;;;;;;;;;20.25;20.25;16.80;99.90;;;;;;4935033;28;11636;-52
2022/06/15 13:36:20;;;;;;;;;17.75;17.75;16.70;99.90;;;;;;4937895;28;11566;-51
2022/06/15 13:38:52;;;;;;;;;15.00;13.75;16.70;99.90;;;;;;4935161;28;11670;-50
2022/06/15 13:41:23;;;;;;;;;16.75;16.75;16.70;99.90;;;;;;4927547;28;11615;-52
2022/06/15 13:43:55;;;;;;;;;20.25;20.25;16.70;99.90;;;;;;4933662;28;11664;-52
2022/06/15 13:46:31;;;;;;;;;21.25;19.50;16.70;99.90;;;;;;4936360;28;11561;-48
2022/06/15 13:49:07;;;;;;;;;28.75;27.25;16.80;99.90;;;;;;4928284;28;11768;-51
2022/06/15 13:51:44;;;;;;;;;44.75;38.75;16.70;99.90;;;;;;4930512;28;11623;-52
2022/06/15 13:54:19;;;;;;;;;53.00;44.67;16.70;99.90;;;;;;4936478;28;11643;-52
2022/06/15 13:57:25;;;;;;;;;61.33;51.00;16.80;99.90;;;;;;4936765;28;11637;-47
2022/06/15 14:00:01;;;;;;;;;63.33;52.33;16.80;99.90;;;;;;4936174;28;8843;-53